Time;durP1;ratioP1;P1;durP2;ratioP2;P2;SDS_P1;SDS_P2;PMS_P1;PMS_P2;Temp;Humidity;BMP_temperature;BMP_pressure;BME280_temperature;BME280_humidity;BME280_pressure;Samples;Min_cycle;Max_cycle;Signal;HPM_P1;HPM_P2
2021/11/07 00:04:32;;;;;;;50.17;23.98;;;3.40;99.90;;;;;;5029938;28;20068;-71
2021/11/07 00:07:12;;;;;;;52.67;24.95;;;3.40;99.90;;;;;;5029070;28;20052;-72
2021/11/07 00:12:21;;;;;;;49.72;23.27;;;3.40;99.90;;;;;;5028925;28;20529;-71
2021/11/07 00:14:51;;;;;;;50.42;24.60;;;3.40;99.90;;;;;;5028809;28;20412;-72
2021/11/07 00:17:24;;;;;;;49.88;22.92;;;3.30;99.90;;;;;;5017357;28;20042;-71
2021/11/07 00:22:56;;;;;;;51.30;23.95;;;3.40;99.90;;;;;;5011774;28;20038;-72
2021/11/07 00:25:54;;;;;;;47.10;23.98;;;3.40;99.90;;;;;;5033533;28;20041;-72
2021/11/07 00:28:43;;;;;;;46.67;22.42;;;3.40;99.90;;;;;;5026210;28;20049;-72
2021/11/07 00:54:27;;;;;;;47.40;23.95;;;3.30;99.90;;;;;;5054044;28;20041;-71
2021/11/07 00:57:00;;;;;;;42.35;21.40;;;3.30;99.90;;;;;;5036701;28;20056;-72
2021/11/07 00:59:46;;;;;;;49.13;23.73;;;3.40;99.90;;;;;;5036232;28;20067;-71
2021/11/07 01:02:24;;;;;;;46.47;23.67;;;3.30;99.90;;;;;;5054161;28;20037;-71
2021/11/07 01:04:51;;;;;;;44.03;22.52;;;3.30;99.90;;;;;;5035845;28;20147;-71
2021/11/07 01:07:24;;;;;;;46.78;22.83;;;3.40;99.90;;;;;;5036123;28;20044;-72
2021/11/07 01:09:54;;;;;;;40.97;21.00;;;3.40;99.90;;;;;;5053940;28;20073;-72
2021/11/07 01:12:26;;;;;;;45.83;22.23;;;3.40;99.90;;;;;;5035913;28;20041;-71
2021/11/07 01:14:56;;;;;;;42.45;21.63;;;3.40;99.90;;;;;;5035716;28;20048;-71
2021/11/07 01:17:28;;;;;;;43.35;22.52;;;3.30;99.90;;;;;;5054004;28;20037;-72
2021/11/07 01:19:56;;;;;;;44.25;23.20;;;3.30;99.90;;;;;;5036084;28;20051;-72
2021/11/07 01:22:50;;;;;;;43.92;23.85;;;3.30;99.90;;;;;;5036219;28;20044;-71
2021/11/07 01:25:18;;;;;;;45.95;23.17;;;3.30;99.90;;;;;;5035567;28;20080;-71
2021/11/07 01:27:51;;;;;;;46.95;24.58;;;3.20;99.90;;;;;;5034763;28;20041;-71
2021/11/07 01:30:23;;;;;;;43.63;22.85;;;3.30;99.90;;;;;;5036059;28;20041;-71
2021/11/07 01:33:06;;;;;;;44.47;22.75;;;3.30;99.90;;;;;;5035674;28;20049;-71
2021/11/07 01:40:43;;;;;;;40.65;21.73;;;3.10;99.90;;;;;;5053486;28;20041;-71
2021/11/07 01:43:11;;;;;;;39.97;21.52;;;3.10;99.90;;;;;;5035198;28;20037;-71
2021/11/07 01:45:51;;;;;;;43.00;22.55;;;3.20;99.90;;;;;;5053092;28;20044;-71
2021/11/07 01:48:26;;;;;;;39.80;22.77;;;3.10;99.90;;;;;;5053368;28;20045;-71
2021/11/07 01:51:00;;;;;;;45.20;22.65;;;3.10;99.90;;;;;;5053332;28;20044;-72
2021/11/07 01:53:34;;;;;;;46.40;24.38;;;3.10;99.90;;;;;;5019407;28;20076;-71
2021/11/07 01:56:05;;;;;;;44.03;23.98;;;3.10;99.90;;;;;;5034940;28;20063;-70
2021/11/07 01:58:38;;;;;;;46.38;23.20;;;3.10;99.90;;;;;;5035175;28;20049;-71
2021/11/07 02:01:07;;;;;;;46.35;22.15;;;3.10;99.90;;;;;;5034977;28;20048;-71
2021/11/07 02:03:39;;;;;;;42.38;21.55;;;3.10;99.90;;;;;;5034461;28;20515;-71
2021/11/07 02:06:11;;;;;;;44.53;22.33;;;3.20;99.90;;;;;;5035141;28;20041;-72
2021/11/07 02:08:38;;;;;;;40.53;21.35;;;3.20;99.90;;;;;;5035003;28;20399;-71
2021/11/07 02:11:10;;;;;;;41.97;21.73;;;3.20;99.90;;;;;;5035071;28;20565;-71
2021/11/07 02:13:37;;;;;;;37.70;20.73;;;3.10;99.90;;;;;;5035100;28;20037;-71
2021/11/07 02:16:04;;;;;;;38.20;21.88;;;3.10;99.90;;;;;;5017713;28;20450;-71
2021/11/07 02:18:31;;;;;;;38.25;22.13;;;3.20;99.90;;;;;;5034760;28;20059;-72
2021/11/07 02:21:03;;;;;;;44.90;21.48;;;3.10;99.90;;;;;;5034404;28;20455;-71
2021/11/07 02:23:35;;;;;;;35.17;20.73;;;3.20;99.90;;;;;;5033895;28;20404;-71
2021/11/07 02:26:06;;;;;;;39.15;20.73;;;3.20;99.90;;;;;;5033891;28;20052;-71
2021/11/07 02:28:44;;;;;;;35.15;19.98;;;3.20;99.90;;;;;;5018749;28;20431;-71
2021/11/07 02:31:18;;;;;;;36.08;20.83;;;3.20;99.90;;;;;;5034067;28;20057;-72
2021/11/07 02:33:47;;;;;;;32.38;19.23;;;3.20;99.90;;;;;;5052276;28;20107;-72
2021/11/07 02:36:17;;;;;;;32.65;19.23;;;3.20;99.90;;;;;;5034754;28;20052;-71
2021/11/07 02:38:49;;;;;;;34.10;17.83;;;3.20;99.90;;;;;;5052384;28;20045;-71
2021/11/07 02:41:21;;;;;;;29.58;17.48;;;3.10;99.90;;;;;;5034278;28;20045;-71
2021/11/07 02:43:54;;;;;;;32.17;17.48;;;3.10;99.90;;;;;;5018566;28;20044;-72
2021/11/07 02:46:26;;;;;;;32.03;17.38;;;3.00;99.90;;;;;;5052084;28;20048;-71
2021/11/07 02:49:01;;;;;;;32.53;18.15;;;3.00;99.90;;;;;;5052167;28;20044;-71
2021/11/07 02:51:34;;;;;;;29.10;16.23;;;3.00;99.90;;;;;;5017905;28;20415;-72
2021/11/07 02:54:08;;;;;;;28.05;16.63;;;3.00;99.90;;;;;;5033702;28;20057;-71
2021/11/07 02:56:35;;;;;;;29.40;17.20;;;3.00;99.90;;;;;;5017771;28;20045;-72
2021/11/07 02:59:16;;;;;;;32.85;16.65;;;3.10;99.90;;;;;;5018458;28;20065;-72
2021/11/07 03:01:43;;;;;;;29.02;16.38;;;3.10;99.90;;;;;;5051916;28;20116;-71
2021/11/07 03:04:15;;;;;;;26.95;16.33;;;3.20;99.90;;;;;;5034634;28;20037;-72
2021/11/07 03:06:47;;;;;;;25.05;15.23;;;3.10;99.90;;;;;;5051868;28;20041;-72
2021/11/07 03:09:25;;;;;;;25.45;15.68;;;3.10;99.90;;;;;;5033978;28;20448;-72
2021/11/07 03:11:58;;;;;;;26.00;15.55;;;3.00;99.90;;;;;;5034666;28;20037;-72
2021/11/07 03:14:34;;;;;;;23.67;13.48;;;2.90;99.90;;;;;;5033580;28;20045;-72
2021/11/07 03:17:08;;;;;;;23.65;14.90;;;2.90;99.90;;;;;;5034731;28;20040;-72
2021/11/07 03:19:41;;;;;;;25.67;16.33;;;2.80;99.90;;;;;;5018116;28;20056;-73
2021/11/07 03:22:11;;;;;;;25.98;16.30;;;2.80;99.90;;;;;;5033644;28;20056;-71
2021/11/07 03:24:44;;;;;;;26.70;16.08;;;2.70;99.90;;;;;;5033250;28;20049;-72
2021/11/07 03:27:22;;;;;;;25.75;14.77;;;2.70;99.90;;;;;;5033688;28;20076;-73
2021/11/07 03:29:57;;;;;;;24.58;15.27;;;2.70;99.90;;;;;;5033665;28;20082;-72
2021/11/07 03:32:32;;;;;;;25.98;16.05;;;2.70;99.90;;;;;;5051466;28;20037;-72
2021/11/07 03:35:06;;;;;;;28.73;17.08;;;2.70;99.90;;;;;;5017583;28;20044;-72
2021/11/07 03:37:44;;;;;;;28.42;15.60;;;2.70;99.90;;;;;;5033596;28;20056;-72
2021/11/07 03:40:16;;;;;;;26.50;15.15;;;2.70;99.90;;;;;;5017907;28;20048;-72
2021/11/07 03:42:48;;;;;;;26.95;16.08;;;2.80;99.90;;;;;;5034430;28;20060;-73
2021/11/07 03:45:15;;;;;;;26.25;15.60;;;2.70;99.90;;;;;;5033352;28;20523;-72
2021/11/07 03:47:47;;;;;;;25.33;16.05;;;2.70;99.90;;;;;;5033468;28;20049;-72
2021/11/07 03:50:15;;;;;;;29.23;17.45;;;2.70;99.90;;;;;;5033968;28;20053;-72
2021/11/07 03:52:48;;;;;;;30.33;18.30;;;2.70;99.90;;;;;;5037851;28;20415;-72
2021/11/07 03:55:15;;;;;;;28.10;17.48;;;2.70;99.90;;;;;;5037316;28;20045;-71
2021/11/07 03:57:47;;;;;;;30.08;17.75;;;2.70;99.90;;;;;;5038579;28;20248;-72
2021/11/07 04:00:21;;;;;;;29.30;16.58;;;2.70;99.90;;;;;;5037527;28;20056;-71
2021/11/07 04:02:53;;;;;;;27.80;18.10;;;2.70;99.90;;;;;;5038165;28;20041;-71
2021/11/07 04:05:21;;;;;;;30.10;17.63;;;2.70;99.90;;;;;;5054979;28;20130;-73
2021/11/07 04:07:53;;;;;;;29.60;17.23;;;2.70;99.90;;;;;;5055222;28;20056;-72
2021/11/07 04:10:25;;;;;;;31.50;18.23;;;2.70;99.90;;;;;;5055168;28;20037;-72
2021/11/07 04:12:58;;;;;;;28.48;17.85;;;2.70;99.90;;;;;;5038110;28;20037;-72
2021/11/07 04:15:37;;;;;;;33.10;19.40;;;2.70;99.90;;;;;;5036703;28;20499;-72
2021/11/07 04:18:13;;;;;;;34.75;19.10;;;2.70;99.90;;;;;;5038308;28;20144;-72
2021/11/07 04:20:41;;;;;;;29.65;17.45;;;2.80;99.90;;;;;;5037253;28;20047;-72
2021/11/07 04:23:13;;;;;;;31.63;19.15;;;2.80;99.90;;;;;;5037784;28;20037;-72
2021/11/07 04:25:45;;;;;;;35.10;19.67;;;2.80;99.90;;;;;;5036581;28;20041;-72
2021/11/07 04:28:12;;;;;;;31.75;17.77;;;2.80;99.90;;;;;;5036796;28;20052;-72
2021/11/07 04:30:39;;;;;;;32.15;19.15;;;2.90;99.90;;;;;;5036868;28;20084;-72
2021/11/07 04:33:11;;;;;;;30.65;18.02;;;2.90;99.90;;;;;;5054790;28;20495;-72
2021/11/07 04:35:38;;;;;;;31.05;18.33;;;2.90;99.90;;;;;;5036766;28;20040;-72
2021/11/07 04:38:11;;;;;;;34.55;17.83;;;2.90;99.90;;;;;;5054550;28;20041;-72
2021/11/07 04:40:44;;;;;;;31.35;19.00;;;2.90;99.90;;;;;;5054493;28;20037;-72
2021/11/07 04:43:11;;;;;;;27.88;16.95;;;2.90;99.90;;;;;;5036929;28;20436;-72
2021/11/07 04:45:38;;;;;;;33.25;18.40;;;2.90;99.90;;;;;;5054226;28;20149;-71
2021/11/07 04:48:10;;;;;;;26.83;16.45;;;2.90;99.90;;;;;;5036572;28;20103;-73
2021/11/07 04:50:43;;;;;;;31.00;18.60;;;2.90;99.90;;;;;;5037460;28;20052;-73
2021/11/07 04:53:20;;;;;;;32.55;19.40;;;2.90;99.90;;;;;;5036270;28;20049;-72
2021/11/07 04:55:48;;;;;;;29.17;17.98;;;2.90;99.90;;;;;;5053916;28;20041;-72
2021/11/07 04:58:20;;;;;;;28.58;17.25;;;3.00;99.90;;;;;;5036448;28;20091;-72
2021/11/07 05:00:52;;;;;;;29.23;17.73;;;2.90;99.90;;;;;;5037242;28;20033;-72
2021/11/07 05:03:24;;;;;;;30.08;17.35;;;2.90;99.90;;;;;;5020324;28;20041;-72
2021/11/07 05:05:51;;;;;;;30.67;17.08;;;3.00;99.90;;;;;;5035925;28;20114;-72
2021/11/07 05:08:18;;;;;;;31.55;18.48;;;3.00;99.90;;;;;;5053995;28;20048;-72
2021/11/07 05:10:51;;;;;;;28.48;17.48;;;3.00;99.90;;;;;;5053971;28;20064;-71
2021/11/07 05:13:23;;;;;;;28.23;17.13;;;3.00;99.90;;;;;;5036934;28;20044;-72
2021/11/07 05:15:55;;;;;;;29.13;17.20;;;3.00;99.90;;;;;;5035522;28;20041;-72
2021/11/07 05:18:27;;;;;;;30.00;17.90;;;3.00;99.90;;;;;;5053699;28;20496;-71
2021/11/07 05:21:00;;;;;;;31.92;18.60;;;3.00;99.90;;;;;;5035906;28;20045;-71
2021/11/07 05:23:27;;;;;;;31.95;18.83;;;3.00;99.90;;;;;;5019401;28;20048;-71
2021/11/07 05:25:56;;;;;;;34.97;20.10;;;3.00;99.90;;;;;;5035533;28;20049;-72
2021/11/07 05:28:28;;;;;;;30.33;17.13;;;3.00;99.90;;;;;;5036204;28;20041;-71
2021/11/07 05:30:55;;;;;;;30.92;18.45;;;3.00;99.90;;;;;;5035890;28;20049;-72
2021/11/07 05:33:22;;;;;;;33.72;18.90;;;3.00;99.90;;;;;;5035694;28;20507;-71
2021/11/07 05:35:54;;;;;;;33.03;19.27;;;3.10;99.90;;;;;;5019548;28;20450;-71
2021/11/07 05:38:27;;;;;;;35.28;19.00;;;3.00;99.90;;;;;;5053609;28;20515;-71
2021/11/07 05:40:54;;;;;;;32.28;18.17;;;3.10;99.90;;;;;;5054119;28;20084;-71
2021/11/07 05:43:26;;;;;;;32.10;18.42;;;3.00;99.90;;;;;;5035573;28;20376;-71
2021/11/07 05:45:58;;;;;;;32.38;17.30;;;3.00;99.90;;;;;;5035233;28;20036;-71
2021/11/07 05:48:25;;;;;;;31.13;17.55;;;3.00;99.90;;;;;;5035868;28;20122;-71
2021/11/07 05:50:52;;;;;;;28.33;17.90;;;3.00;99.90;;;;;;5035772;28;20079;-71
2021/11/07 05:53:24;;;;;;;31.85;16.98;;;3.00;99.90;;;;;;5053398;28;20051;-71
2021/11/07 05:55:56;;;;;;;33.15;19.00;;;3.10;99.90;;;;;;5035678;28;20037;-72
2021/11/07 05:58:28;;;;;;;30.45;18.17;;;3.10;99.90;;;;;;5036375;28;20037;-72
2021/11/07 06:01:00;;;;;;;28.17;16.92;;;3.10;99.90;;;;;;5018693;28;20052;-72
2021/11/07 06:03:27;;;;;;;28.23;17.02;;;3.20;99.90;;;;;;5041482;28;20037;-72
2021/11/07 06:05:59;;;;;;;30.75;16.95;;;3.10;99.90;;;;;;5023987;28;20060;-72
2021/11/07 06:08:31;;;;;;;33.75;18.45;;;3.10;99.90;;;;;;5041726;28;20116;-71
2021/11/07 06:10:58;;;;;;;30.17;16.77;;;3.10;99.90;;;;;;5028185;28;20594;-71
2021/11/07 06:13:30;;;;;;;27.98;15.93;;;3.10;99.90;;;;;;5015003;28;20041;-71
2021/11/07 06:15:58;;;;;;;34.70;19.40;;;3.20;99.90;;;;;;5034631;28;20841;-71
2021/11/07 06:18:30;;;;;;;30.87;17.17;;;3.20;99.90;;;;;;5051368;28;20087;-71
2021/11/07 06:21:02;;;;;;;34.25;17.95;;;3.20;99.90;;;;;;5043663;28;20045;-72
2021/11/07 06:23:34;;;;;;;30.95;16.73;;;3.20;99.90;;;;;;5033692;28;20052;-71
2021/11/07 06:26:02;;;;;;;30.70;18.38;;;3.20;99.90;;;;;;5032687;28;20044;-70
2021/11/07 06:28:34;;;;;;;30.40;17.20;;;3.30;99.90;;;;;;5051809;28;20049;-72
2021/11/07 06:31:08;;;;;;;33.35;17.85;;;3.30;99.90;;;;;;5035048;28;20041;-72
2021/11/07 06:33:41;;;;;;;29.05;17.88;;;3.30;99.90;;;;;;5020649;28;20496;-71
2021/11/07 06:36:13;;;;;;;30.27;17.58;;;3.30;99.90;;;;;;5013746;28;20096;-71
2021/11/07 06:38:45;;;;;;;31.55;18.25;;;3.30;99.90;;;;;;5015278;28;20038;-72
2021/11/07 06:41:17;;;;;;;30.50;17.88;;;3.40;99.90;;;;;;5015086;28;20048;-72
2021/11/07 06:43:44;;;;;;;34.08;19.27;;;3.40;99.90;;;;;;5014033;28;20049;-71
2021/11/07 06:46:16;;;;;;;29.33;18.08;;;3.30;99.90;;;;;;5013764;28;20058;-71
2021/11/07 06:48:49;;;;;;;30.33;18.70;;;3.30;99.90;;;;;;5015093;28;20120;-71
2021/11/07 06:51:21;;;;;;;31.45;18.40;;;3.30;99.90;;;;;;4989902;28;20393;-71
2021/11/07 06:53:51;;;;;;;31.90;18.65;;;3.30;99.90;;;;;;5013952;28;20500;-71
2021/11/07 06:56:23;;;;;;;32.63;18.88;;;3.30;99.90;;;;;;5030886;28;20048;-71
2021/11/07 06:58:50;;;;;;;28.75;16.33;;;3.30;99.90;;;;;;5014290;28;20038;-72
2021/11/07 07:01:18;;;;;;;31.65;18.25;;;3.30;99.90;;;;;;4997474;28;20048;-72
2021/11/07 07:03:45;;;;;;;31.67;19.00;;;3.30;99.90;;;;;;5031595;28;20510;-71
2021/11/07 07:06:17;;;;;;;32.40;18.75;;;3.30;99.90;;;;;;5018158;28;20041;-72
2021/11/07 07:08:56;;;;;;;31.58;19.02;;;3.20;99.90;;;;;;5051531;28;20499;-71
2021/11/07 07:11:32;;;;;;;31.27;18.65;;;3.20;99.90;;;;;;5033331;28;20049;-71
2021/11/07 07:14:10;;;;;;;30.88;18.10;;;3.20;99.90;;;;;;5034238;28;20041;-71
2021/11/07 07:27:22;;;;;;;30.08;17.27;;;3.40;99.90;;;;;;5033182;28;20110;-72
2021/11/07 07:35:07;;;;;;;29.65;17.65;;;3.30;99.90;;;;;;5047626;28;20041;-72
2021/11/07 07:37:39;;;;;;;31.92;18.58;;;3.30;99.90;;;;;;5032907;28;20048;-72
2021/11/07 07:40:11;;;;;;;30.30;18.55;;;3.40;99.90;;;;;;5050345;28;20511;-72
2021/11/07 07:42:38;;;;;;;30.98;18.75;;;3.40;99.90;;;;;;5032779;28;20049;-72
2021/11/07 07:45:11;;;;;;;27.02;16.48;;;3.40;99.90;;;;;;5032222;28;20427;-71
2021/11/07 07:47:42;;;;;;;29.67;17.77;;;3.50;99.90;;;;;;5032793;28;20072;-72
2021/11/07 07:50:16;;;;;;;32.17;17.25;;;3.50;99.90;;;;;;5033519;28;20048;-72
2021/11/07 07:52:49;;;;;;;25.92;16.05;;;3.50;99.90;;;;;;5033965;28;20052;-72
2021/11/07 07:55:21;;;;;;;30.92;16.92;;;3.40;99.90;;;;;;5032159;28;20045;-72
2021/11/07 07:57:53;;;;;;;29.65;16.73;;;3.50;99.90;;;;;;5032675;28;20041;-72
2021/11/07 08:00:21;;;;;;;28.67;17.15;;;3.50;99.90;;;;;;5031774;28;20052;-72
2021/11/07 08:02:48;;;;;;;30.70;18.00;;;3.60;99.90;;;;;;5045639;28;20045;-72
2021/11/07 08:05:15;;;;;;;29.27;17.48;;;3.60;99.90;;;;;;5042602;28;20051;-72
2021/11/07 08:07:43;;;;;;;26.95;16.10;;;3.60;99.90;;;;;;5038653;28;20534;-71
2021/11/07 08:10:16;;;;;;;28.20;16.30;;;3.70;99.90;;;;;;5018564;28;20515;-71
2021/11/07 08:12:43;;;;;;;25.33;15.57;;;3.70;99.90;;;;;;5033783;28;20126;-71
2021/11/07 08:15:13;;;;;;;25.95;15.85;;;3.80;99.90;;;;;;5030513;28;20029;-71
2021/11/07 08:17:45;;;;;;;27.27;16.55;;;3.70;99.90;;;;;;5045206;28;20045;-71
2021/11/07 08:20:15;;;;;;;27.67;16.52;;;3.80;99.90;;;;;;5031569;28;20056;-71
2021/11/07 08:22:48;;;;;;;27.42;15.70;;;3.90;99.90;;;;;;5028910;28;20049;-71
2021/11/07 08:25:20;;;;;;;29.35;16.63;;;3.90;99.90;;;;;;5047296;28;20041;-71
2021/11/07 08:27:51;;;;;;;30.63;16.27;;;4.00;99.90;;;;;;5034809;28;20063;-71
2021/11/07 08:30:25;;;;;;;25.23;15.77;;;4.00;99.90;;;;;;5031667;28;20064;-71
2021/11/07 08:32:59;;;;;;;25.77;15.38;;;4.00;99.90;;;;;;5049586;28;20049;-71
2021/11/07 08:35:27;;;;;;;29.38;17.40;;;4.10;99.90;;;;;;5049433;28;20059;-72
2021/11/07 08:40:51;;;;;;;25.07;15.63;;;4.20;99.90;;;;;;5036475;28;20091;-72
2021/11/07 09:03:10;;;;;;;26.92;16.58;;;4.60;99.90;;;;;;5019474;28;20037;-71
2021/11/07 09:06:21;;;;;;;24.92;16.38;;;4.70;99.90;;;;;;5023041;28;20033;-71
2021/11/07 09:08:50;;;;;;;24.13;15.82;;;4.70;99.90;;;;;;5016453;28;20037;-71
2021/11/07 09:11:22;;;;;;;24.80;16.10;;;4.70;99.90;;;;;;5000904;28;20500;-71
2021/11/07 09:13:54;;;;;;;26.23;16.13;;;4.70;99.90;;;;;;5015635;28;20475;-71
2021/11/07 09:16:26;;;;;;;24.60;16.33;;;4.70;99.90;;;;;;5016465;28;20519;-71
2021/11/07 09:19:00;;;;;;;24.50;15.23;;;4.80;99.90;;;;;;5033570;28;20038;-71
2021/11/07 09:21:37;;;;;;;23.00;15.13;;;4.90;99.90;;;;;;5032646;28;20389;-71
2021/11/07 09:24:10;;;;;;;23.83;15.68;;;5.00;99.90;;;;;;5006113;28;20049;-72
2021/11/07 09:26:46;;;;;;;25.73;15.73;;;5.10;99.90;;;;;;5015812;28;20067;-71
2021/11/07 09:32:31;;;;;;;25.67;15.88;;;5.10;99.90;;;;;;4998937;28;20088;-72
2021/11/07 09:40:15;;;;;;;24.27;16.58;;;5.10;99.90;;;;;;5014686;28;20046;-71
2021/11/07 09:45:34;;;;;;;22.98;14.85;;;5.20;99.90;;;;;;5015156;28;20080;-72
2021/11/07 09:50:46;;;;;;;25.65;15.45;;;5.30;99.90;;;;;;5032322;28;20041;-72
2021/11/07 09:53:14;;;;;;;24.33;15.13;;;5.40;99.90;;;;;;5034316;28;20107;-72
2021/11/07 09:55:43;;;;;;;26.15;15.07;;;5.40;99.90;;;;;;5034012;28;20045;-72
2021/11/07 09:58:16;;;;;;;22.40;14.07;;;5.40;99.90;;;;;;5034032;28;20411;-72
2021/11/07 10:00:52;;;;;;;21.58;13.65;;;5.50;99.90;;;;;;5051564;28;20044;-72
2021/11/07 10:03:25;;;;;;;22.67;13.85;;;5.50;99.90;;;;;;5034119;28;20107;-72
2021/11/07 10:05:53;;;;;;;24.05;14.70;;;5.60;99.90;;;;;;5024307;28;20045;-72
2021/11/07 10:08:26;;;;;;;21.15;14.15;;;5.50;99.90;;;;;;5013484;28;20099;-72
2021/11/07 10:13:29;;;;;;;21.48;14.95;;;5.30;99.90;;;;;;5051413;28;20037;-72
2021/11/07 10:16:06;;;;;;;25.05;14.98;;;5.20;99.90;;;;;;5033448;28;20049;-72
2021/11/07 10:19:04;;;;;;;22.20;13.82;;;5.20;99.90;;;;;;5023439;28;20048;-72
2021/11/07 10:21:37;;;;;;;24.40;14.90;;;5.30;99.90;;;;;;5013282;28;20060;-72
2021/11/07 10:24:13;;;;;;;22.48;14.88;;;5.40;99.90;;;;;;4995831;28;20571;-72
2021/11/07 10:26:43;;;;;;;23.52;15.02;;;5.50;99.90;;;;;;5013546;28;20059;-72
2021/11/07 10:29:21;;;;;;;21.27;13.70;;;5.70;99.90;;;;;;5013367;28;20049;-72
2021/11/07 10:52:04;;;;;;;21.13;14.65;;;6.40;99.90;;;;;;5013545;28;20424;-72
2021/11/07 10:54:20;;;;;;;21.55;14.07;;;6.30;99.90;;;;;;5030814;28;20408;-73
2021/11/07 10:57:14;;;;;;;19.23;13.10;;;6.40;99.90;;;;;;5013624;28;20057;-73
2021/11/07 11:00:05;;;;;;;;;;;6.50;99.90;;;;;;5030180;28;20041;-72
2021/11/07 11:02:45;;;;;;;19.83;12.80;;;6.50;99.90;;;;;;4998117;28;20283;-73
2021/11/07 11:05:20;;;;;;;22.83;13.55;;;6.50;99.90;;;;;;5029475;28;20586;-73
2021/11/07 11:07:53;;;;;;;21.15;13.80;;;6.60;99.90;;;;;;5012507;28;20140;-73
2021/11/07 11:10:45;;;;;;;20.92;15.07;;;6.70;99.90;;;;;;5033466;28;20549;-72
2021/11/07 11:19:06;;;;;;;;;;;7.00;99.90;;;;;;5028620;28;20478;-73
2021/11/07 11:36:24;;;;;;;17.40;11.90;;;7.40;99.90;;;;;;5040056;28;20045;-73
2021/11/07 11:39:00;;;;;;;18.85;11.85;;;7.50;99.90;;;;;;5029048;28;21049;-72
2021/11/07 11:42:17;;;;;;;17.52;11.98;;;7.50;99.90;;;;;;5045509;28;20519;-72
2021/11/07 11:44:24;;;;;;;16.90;11.77;;;7.70;99.90;;;;;;5037942;28;20057;-72
2021/11/07 11:47:30;;;;;;;17.87;11.80;;;7.70;99.90;;;;;;5037730;28;20512;-73
2021/11/07 11:55:46;;;;;;;16.10;11.27;;;8.10;99.90;;;;;;5047500;28;20041;-72
2021/11/07 12:12:06;;;;;;;11.20;8.80;;;8.40;99.90;;;;;;5040656;28;20458;-71
2021/11/07 12:15:13;;;;;;;14.05;8.93;;;8.40;99.90;;;;;;5016527;28;20050;-71
2021/11/07 12:17:46;;;;;;;13.23;9.45;;;8.30;99.90;;;;;;5016553;28;20041;-71
2021/11/07 12:20:21;;;;;;;14.02;9.88;;;8.10;99.90;;;;;;5018252;28;20177;-72
2021/11/07 12:22:50;;;;;;;14.38;9.30;;;8.30;99.90;;;;;;5032641;28;20059;-72
2021/11/07 12:25:28;;;;;;;13.70;9.82;;;8.30;99.90;;;;;;5025740;28;20107;-71
2021/11/07 12:28:01;;;;;;;12.32;8.38;;;8.40;99.90;;;;;;5050720;28;20033;-72
2021/11/07 12:30:30;;;;;;;14.77;10.32;;;8.60;99.90;;;;;;5014832;28;20077;-71
2021/11/07 12:33:20;;;;;;;9.75;7.75;;;8.60;99.90;;;;;;5017890;28;20046;-72
2021/11/07 12:36:24;;;;;;;12.75;8.95;;;8.70;99.90;;;;;;5034642;28;20574;-72
2021/11/07 12:42:08;;;;;;;11.23;8.20;;;8.60;99.90;;;;;;5057005;28;20075;-71
2021/11/07 12:44:46;;;;;;;11.65;8.10;;;8.70;99.90;;;;;;5051130;28;20029;-72
2021/11/07 12:47:44;;;;;;;10.32;8.02;;;8.60;99.90;;;;;;5033536;28;20044;-72
2021/11/07 12:50:16;;;;;;;11.70;9.13;;;8.70;99.90;;;;;;5051447;28;20123;-72
2021/11/07 12:52:52;;;;;;;10.65;7.93;;;8.70;99.90;;;;;;5011726;28;20053;-72
2021/11/07 12:55:29;;;;;;;10.35;7.65;;;8.80;99.90;;;;;;5053406;28;20443;-73
2021/11/07 12:57:57;;;;;;;8.02;6.40;;;8.80;99.90;;;;;;5027920;28;20037;-73
2021/11/07 13:00:24;;;;;;;10.75;7.47;;;8.90;99.90;;;;;;5026535;28;20045;-72
2021/11/07 13:02:51;;;;;;;9.38;6.80;;;9.10;99.90;;;;;;5023561;28;20096;-73
2021/11/07 13:05:32;;;;;;;9.52;7.03;;;9.10;99.90;;;;;;5036638;28;20033;-72
2021/11/07 13:08:03;;;;;;;10.55;6.65;;;9.00;99.90;;;;;;5037080;28;20048;-72
2021/11/07 13:10:44;;;;;;;8.77;6.82;;;9.00;99.90;;;;;;5033529;28;20064;-73
2021/11/07 13:15:59;;;;;;;10.15;6.90;;;8.90;99.90;;;;;;5053817;28;20240;-73
2021/11/07 13:26:34;;;;;;;7.50;5.68;;;9.00;99.90;;;;;;5032417;28;20068;-72
2021/11/07 13:29:20;;;;;;;7.72;5.65;;;8.90;99.90;;;;;;5038175;28;20041;-73
2021/11/07 13:32:01;;;;;;;8.65;5.82;;;8.80;99.90;;;;;;5031766;28;20099;-72
2021/11/07 13:34:34;;;;;;;9.48;6.45;;;8.80;99.90;;;;;;5033078;28;20516;-73
2021/11/07 13:37:09;;;;;;;9.00;6.32;;;8.80;99.90;;;;;;5027024;28;20128;-73
2021/11/07 13:39:37;;;;;;;7.30;5.50;;;8.70;99.90;;;;;;5030840;28;20047;-73
2021/11/07 13:42:14;;;;;;;6.70;5.10;;;8.80;99.90;;;;;;5042668;28;20203;-73
2021/11/07 13:44:47;;;;;;;8.30;5.15;;;8.70;99.90;;;;;;5042415;28;20052;-72
2021/11/07 13:47:27;;;;;;;6.45;4.93;;;8.70;99.90;;;;;;5049670;28;20045;-72
2021/11/07 13:50:03;;;;;;;8.07;5.82;;;8.70;99.90;;;;;;5024710;28;20136;-73
2021/11/07 13:52:37;;;;;;;7.10;5.18;;;8.60;99.90;;;;;;5062112;28;20044;-73
2021/11/07 13:55:12;;;;;;;;;;;8.60;99.90;;;;;;5070168;28;20048;-72
2021/11/07 13:57:39;;;;;;;8.80;5.22;;;8.60;99.90;;;;;;5051757;28;19969;-73
2021/11/07 14:00:16;;;;;;;7.25;5.20;;;8.60;99.90;;;;;;5072484;28;20044;-73
2021/11/07 14:02:52;;;;;;;7.75;5.78;;;8.60;99.90;;;;;;5040514;28;20037;-73
2021/11/07 14:05:20;;;;;;;6.32;5.40;;;8.60;99.90;;;;;;5053074;28;20075;-72
2021/11/07 14:08:03;;;;;;;11.10;5.85;;;8.60;99.90;;;;;;5049224;28;20048;-74
2021/11/07 14:10:34;;;;;;;7.32;5.60;;;8.60;99.90;;;;;;5030604;28;20055;-73
2021/11/07 14:13:10;;;;;;;8.80;5.47;;;8.60;99.90;;;;;;5033359;28;20407;-73
2021/11/07 14:15:47;;;;;;;6.75;5.40;;;8.60;99.90;;;;;;5042133;28;20063;-73
2021/11/07 14:18:28;;;;;;;9.45;5.65;;;8.60;99.90;;;;;;5023422;28;20046;-73
2021/11/07 14:21:04;;;;;;;7.07;5.63;;;8.70;99.90;;;;;;5014540;28;20045;-71
2021/11/07 14:24:24;;;;;;;8.23;5.63;;;8.70;99.90;;;;;;5031973;28;20049;-72
2021/11/07 14:32:06;;;;;;;8.20;5.20;;;8.70;99.90;;;;;;5014449;28;20060;-72
2021/11/07 14:34:59;;;;;;;7.75;6.07;;;8.60;99.90;;;;;;5030935;28;20586;-74
2021/11/07 14:40:49;;;;;;;8.57;5.43;;;8.40;99.90;;;;;;4999575;28;20077;-72
2021/11/07 14:43:30;;;;;;;7.93;5.80;;;8.30;99.90;;;;;;5029866;28;20056;-73
2021/11/07 14:49:02;;;;;;;7.43;5.57;;;8.20;99.90;;;;;;5014291;28;20041;-73
2021/11/07 14:54:40;;;;;;;8.20;5.85;;;8.20;99.90;;;;;;5031333;28;20500;-73
2021/11/07 15:00:35;;;;;;;8.30;5.28;;;8.10;99.90;;;;;;4993680;28;20054;-72
2021/11/07 15:03:14;;;;;;;10.25;6.00;;;8.00;99.90;;;;;;5013716;28;20518;-72
2021/11/07 15:05:58;;;;;;;9.32;5.78;;;8.00;99.90;;;;;;5031485;28;20096;-72
2021/11/07 15:08:39;;;;;;;8.80;5.85;;;8.00;99.90;;;;;;5013557;28;20045;-73
2021/11/07 15:14:44;;;;;;;7.28;5.10;;;8.00;99.90;;;;;;5010411;28;20065;-72
2021/11/07 15:17:15;;;;;;;7.90;5.32;;;8.00;99.90;;;;;;5030276;28;20496;-72
2021/11/07 15:20:25;;;;;;;7.88;5.50;;;7.90;99.90;;;;;;5031383;28;20041;-72
2021/11/07 15:22:46;;;;;;;8.52;5.88;;;7.90;99.90;;;;;;5010766;28;20058;-73
2021/11/07 15:25:26;;;;;;;8.35;5.47;;;7.80;99.90;;;;;;5031321;28;20041;-73
2021/11/07 15:28:08;;;;;;;7.50;5.85;;;7.80;99.90;;;;;;5030448;28;20068;-72
2021/11/07 15:30:42;;;;;;;7.68;5.43;;;7.70;99.90;;;;;;5014970;28;20041;-73
2021/11/07 15:33:15;;;;;;;7.30;4.95;;;7.70;99.90;;;;;;5031094;28;20041;-73
2021/11/07 15:35:52;;;;;;;8.35;5.05;;;7.70;99.90;;;;;;5029204;28;20460;-72
2021/11/07 15:38:25;;;;;;;7.13;4.90;;;7.70;99.90;;;;;;4997251;28;20042;-73
2021/11/07 15:41:06;;;;;;;7.65;4.90;;;7.70;99.90;;;;;;5030838;28;20068;-72
2021/11/07 15:43:34;;;;;;;7.55;5.32;;;7.70;99.90;;;;;;5013296;28;20041;-72
2021/11/07 15:46:13;;;;;;;8.60;4.60;;;7.70;99.90;;;;;;5011821;28;20045;-72
2021/11/07 15:48:46;;;;;;;6.97;4.82;;;7.70;99.90;;;;;;4995949;28;20056;-72
2021/11/07 15:51:23;;;;;;;7.60;4.57;;;7.70;99.90;;;;;;5013234;28;20547;-73
2021/11/07 15:57:05;;;;;;;6.85;4.88;;;7.70;99.90;;;;;;5030439;28;20061;-73
2021/11/07 16:05:26;;;;;;;8.10;5.13;;;7.50;99.90;;;;;;4995706;28;20046;-73
2021/11/07 16:08:08;;;;;;;10.00;5.20;;;7.50;99.90;;;;;;5012679;28;20068;-72
2021/11/07 16:16:38;;;;;;;6.55;4.85;;;7.50;99.90;;;;;;4994419;28;20186;-73
2021/11/07 16:19:23;;;;;;;7.55;5.13;;;7.50;99.90;;;;;;5029249;28;20107;-72
2021/11/07 16:22:03;;;;;;;6.85;5.22;;;7.50;99.90;;;;;;5012535;28;20040;-73
2021/11/07 16:24:31;;;;;;;8.55;4.97;;;7.50;99.90;;;;;;5012368;28;20069;-72
2021/11/07 16:27:03;;;;;;;6.35;4.30;;;7.50;99.90;;;;;;5012521;28;20579;-73
2021/11/07 16:29:32;;;;;;;8.02;5.30;;;7.50;99.90;;;;;;5029011;28;20071;-72
2021/11/07 16:34:38;;;;;;;7.82;4.80;;;7.50;99.90;;;;;;5028749;28;20272;-72
2021/11/07 16:37:14;;;;;;;9.60;5.05;;;7.50;99.90;;;;;;5013493;28;20041;-73
2021/11/07 16:40:16;;;;;;;7.80;5.05;;;7.50;99.90;;;;;;5012484;28;20037;-72
2021/11/07 16:42:35;;;;;;;6.55;5.30;;;7.50;99.90;;;;;;5028839;28;20184;-73